Time;durP1;ratioP1;P1;durP2;ratioP2;P2;SDS_P1;SDS_P2;PMS_P1;PMS_P2;Temp;Humidity;BMP_temperature;BMP_pressure;BME280_temperature;BME280_humidity;BME280_pressure;Samples;Min_cycle;Max_cycle;Signal;HPM_P1;HPM_P2
2023/07/20 00:00:29;;;;;;;6.68;4.72;;;17.60;99.90;;;;;;5042039;28;20049;-52
2023/07/20 00:03:11;;;;;;;5.68;4.40;;;17.60;99.90;;;;;;5039383;28;20092;-55
2023/07/20 00:05:36;;;;;;;7.20;4.10;;;17.70;99.90;;;;;;5036847;28;20115;-52
2023/07/20 00:08:02;;;;;;;9.50;4.57;;;17.60;99.90;;;;;;5038257;28;20045;-51
2023/07/20 00:10:27;;;;;;;9.07;4.40;;;17.50;99.90;;;;;;5035869;28;20405;-51
2023/07/20 00:12:53;;;;;;;10.00;5.03;;;17.50;99.90;;;;;;5038015;28;20029;-51
2023/07/20 00:15:18;;;;;;;10.32;5.10;;;17.50;99.90;;;;;;5035598;28;20036;-52
2023/07/20 00:17:44;;;;;;;8.45;5.22;;;17.50;99.90;;;;;;5041377;28;20038;-52
2023/07/20 00:20:11;;;;;;;6.85;4.80;;;17.40;99.90;;;;;;5036158;28;20740;-52
2023/07/20 00:22:36;;;;;;;7.97;4.70;;;17.40;99.90;;;;;;5043067;28;20154;-52
2023/07/20 00:25:02;;;;;;;8.32;5.53;;;17.50;99.90;;;;;;5038014;28;20275;-53
2023/07/20 00:27:28;;;;;;;9.15;5.22;;;17.60;99.90;;;;;;5032492;28;20544;-53
2023/07/20 00:29:54;;;;;;;8.70;4.95;;;17.60;99.90;;;;;;5045339;28;20033;-50
2023/07/20 00:32:19;;;;;;;8.63;4.93;;;17.60;99.90;;;;;;5036684;28;20044;-53
2023/07/20 00:34:45;;;;;;;9.30;5.40;;;17.50;99.90;;;;;;5033096;28;20034;-54
2023/07/20 00:37:10;;;;;;;8.27;4.88;;;17.60;99.90;;;;;;5034580;28;20112;-51
2023/07/20 00:39:36;;;;;;;10.15;4.90;;;17.50;99.90;;;;;;5032199;28;20503;-53
2023/07/20 00:42:02;;;;;;;6.38;4.50;;;17.50;99.90;;;;;;5045287;28;20094;-53
2023/07/20 00:44:27;;;;;;;7.70;4.97;;;17.40;99.90;;;;;;5039981;28;20045;-53
2023/07/20 00:46:53;;;;;;;6.70;4.85;;;17.50;99.90;;;;;;5032904;28;20053;-52
2023/07/20 00:49:21;;;;;;;6.85;4.88;;;17.60;99.90;;;;;;5037201;28;20120;-53
2023/07/20 00:51:48;;;;;;;8.95;5.20;;;17.90;99.90;;;;;;5038681;28;20029;-51
2023/07/20 00:54:15;;;;;;;7.07;5.10;;;17.90;99.90;;;;;;5034246;28;20135;-52
2023/07/20 00:56:41;;;;;;;8.57;5.53;;;17.90;99.90;;;;;;5029853;28;20029;-52
2023/07/20 00:59:07;;;;;;;11.73;5.75;;;17.90;99.90;;;;;;5038237;28;20136;-51
2023/07/20 01:01:33;;;;;;;8.18;5.47;;;18.10;99.90;;;;;;5036562;28;20177;-51
2023/07/20 01:03:58;;;;;;;9.43;5.35;;;18.10;99.90;;;;;;5039225;28;20324;-51
2023/07/20 01:06:39;;;;;;;9.00;6.07;;;18.10;99.90;;;;;;5036786;28;20445;-50
2023/07/20 01:09:19;;;;;;;10.77;5.63;;;18.10;99.90;;;;;;5037641;28;20400;-53
2023/07/20 01:11:59;;;;;;;9.82;5.47;;;18.20;99.90;;;;;;5060402;28;20036;-50
2023/07/20 01:14:25;;;;;;;8.68;5.28;;;18.10;99.90;;;;;;5038892;28;20076;-51
2023/07/20 01:16:52;;;;;;;7.85;5.43;;;18.20;99.90;;;;;;5036124;28;20496;-51
2023/07/20 01:19:18;;;;;;;8.70;5.60;;;18.20;99.90;;;;;;5033554;28;20056;-48
2023/07/20 01:22:01;;;;;;;9.88;5.85;;;18.10;99.90;;;;;;5033180;28;20025;-51
2023/07/20 01:24:51;;;;;;;9.77;5.88;;;17.90;99.90;;;;;;5039864;28;20037;-51
2023/07/20 01:27:56;;;;;;;10.13;5.95;;;18.00;99.90;;;;;;5043528;28;20040;-51
2023/07/20 01:30:34;;;;;;;10.23;5.75;;;17.90;99.90;;;;;;5038499;28;20519;-52
2023/07/20 01:33:01;;;;;;;8.45;6.32;;;17.80;99.90;;;;;;5041768;28;20137;-51
2023/07/20 01:35:30;;;;;;;10.77;6.28;;;17.70;99.90;;;;;;5042697;28;20665;-51
2023/07/20 01:37:57;;;;;;;10.35;6.00;;;17.60;99.90;;;;;;5040699;28;20040;-51
2023/07/20 01:40:25;;;;;;;10.82;6.95;;;17.60;99.90;;;;;;5036593;28;20119;-50
2023/07/20 01:42:51;;;;;;;10.70;6.90;;;17.50;99.90;;;;;;5035818;28;20033;-52
2023/07/20 01:45:17;;;;;;;12.32;7.90;;;17.60;99.90;;;;;;5029573;28;20083;-51
2023/07/20 01:47:43;;;;;;;11.05;7.68;;;17.70;99.90;;;;;;5037648;28;20045;-52
2023/07/20 01:50:09;;;;;;;12.95;7.22;;;17.60;99.90;;;;;;5037258;28;20788;-52
2023/07/20 01:52:35;;;;;;;11.15;6.72;;;17.50;99.90;;;;;;5040428;28;20052;-52
2023/07/20 01:55:00;;;;;;;9.35;6.53;;;17.50;99.90;;;;;;5042534;28;20033;-51
2023/07/20 01:57:26;;;;;;;9.30;6.30;;;17.50;99.90;;;;;;5041824;28;20044;-52
2023/07/20 01:59:52;;;;;;;12.48;7.07;;;17.70;99.90;;;;;;5042693;28;20036;-52
2023/07/20 02:02:18;;;;;;;13.15;6.63;;;17.60;99.90;;;;;;5036747;28;20036;-51
2023/07/20 02:04:44;;;;;;;12.80;7.40;;;17.50;99.90;;;;;;5040913;28;20060;-52
2023/07/20 02:07:10;;;;;;;11.50;6.85;;;17.70;99.90;;;;;;5041340;28;20060;-52
2023/07/20 02:09:35;;;;;;;11.38;7.10;;;17.80;99.90;;;;;;5042606;28;20565;-52
2023/07/20 02:12:01;;;;;;;10.75;6.90;;;17.70;99.90;;;;;;5041869;28;20025;-52
2023/07/20 02:14:26;;;;;;;10.07;7.05;;;17.80;99.90;;;;;;5037326;28;20523;-50
2023/07/20 02:16:53;;;;;;;10.38;6.72;;;17.70;99.90;;;;;;5035448;28;20037;-53
2023/07/20 02:19:20;;;;;;;14.32;7.22;;;17.80;99.90;;;;;;5041739;28;20037;-51
2023/07/20 02:21:46;;;;;;;14.02;6.70;;;17.90;99.90;;;;;;5038032;28;20037;-51
2023/07/20 02:24:12;;;;;;;13.10;6.88;;;17.90;99.90;;;;;;5039697;28;20041;-52
2023/07/20 02:26:38;;;;;;;12.88;6.53;;;17.90;99.90;;;;;;5038888;28;20040;-52
2023/07/20 02:29:04;;;;;;;12.10;6.75;;;17.90;99.90;;;;;;5039942;28;20486;-52
2023/07/20 02:31:30;;;;;;;10.48;6.85;;;17.80;99.90;;;;;;5038079;28;20046;-49
2023/07/20 02:33:56;;;;;;;12.75;7.72;;;17.70;99.90;;;;;;5031842;28;20120;-49
2023/07/20 02:36:21;;;;;;;11.10;7.93;;;17.70;99.90;;;;;;5046437;28;20040;-50
2023/07/20 02:38:47;;;;;;;12.15;7.70;;;17.80;99.90;;;;;;5042153;28;20029;-51
2023/07/20 02:41:13;;;;;;;13.77;7.63;;;17.70;99.90;;;;;;5041369;28;20029;-52
2023/07/20 02:43:39;;;;;;;15.10;7.28;;;17.70;99.90;;;;;;5040816;28;20029;-52
2023/07/20 02:46:05;;;;;;;13.05;7.65;;;17.70;99.90;;;;;;5039553;28;20083;-53
2023/07/20 02:48:30;;;;;;;15.00;7.93;;;17.70;99.90;;;;;;5041706;28;20447;-52
2023/07/20 02:50:56;;;;;;;13.07;7.50;;;17.70;99.90;;;;;;5046082;28;20044;-54
2023/07/20 02:53:21;;;;;;;11.02;6.97;;;17.70;99.90;;;;;;5034607;28;20590;-49
2023/07/20 02:55:47;;;;;;;10.45;7.10;;;17.60;99.90;;;;;;5044479;28;20038;-52
2023/07/20 02:58:13;;;;;;;13.70;7.50;;;17.50;99.90;;;;;;5039030;28;20463;-52
2023/07/20 03:00:38;;;;;;;15.57;7.45;;;17.30;99.90;;;;;;5039975;28;20037;-52
2023/07/20 03:03:05;;;;;;;13.85;7.70;;;17.30;99.90;;;;;;5045049;28;20579;-52
2023/07/20 03:05:30;;;;;;;13.70;7.75;;;17.20;99.90;;;;;;5042492;28;20036;-50
2023/07/20 03:07:56;;;;;;;20.60;10.25;;;17.20;99.90;;;;;;5035679;28;20086;-51
2023/07/20 03:10:22;;;;;;;18.92;9.25;;;17.00;99.90;;;;;;5036933;28;20049;-50
2023/07/20 03:12:47;;;;;;;18.50;9.20;;;17.20;99.90;;;;;;5038022;28;20032;-50
2023/07/20 03:15:13;;;;;;;19.17;9.50;;;17.20;99.90;;;;;;5046063;28;20104;-49
2023/07/20 03:17:38;;;;;;;17.08;9.50;;;17.30;99.90;;;;;;5043858;28;20033;-52
2023/07/20 03:20:08;;;;;;;18.17;10.35;;;17.40;99.90;;;;;;5045931;28;20064;-52
2023/07/20 03:22:34;;;;;;;20.13;9.30;;;17.50;99.90;;;;;;5043369;28;20044;-50
2023/07/20 03:25:00;;;;;;;22.23;9.77;;;17.40;99.90;;;;;;5042013;28;20499;-50
2023/07/20 03:27:25;;;;;;;15.15;9.10;;;17.30;99.90;;;;;;5039816;28;20041;-53
2023/07/20 03:29:51;;;;;;;17.05;9.95;;;17.20;99.90;;;;;;5031771;28;20037;-51
2023/07/20 03:32:16;;;;;;;23.33;9.77;;;17.10;99.90;;;;;;5039688;28;20033;-51
2023/07/20 03:34:44;;;;;;;18.05;9.32;;;17.10;99.90;;;;;;5041942;28;20033;-50
2023/07/20 03:37:09;;;;;;;16.75;8.90;;;17.00;99.90;;;;;;5039651;28;20127;-51
2023/07/20 03:39:35;;;;;;;13.60;9.73;;;17.10;99.90;;;;;;5042393;28;20481;-50
2023/07/20 03:42:00;;;;;;;24.42;10.40;;;17.00;99.90;;;;;;5045962;28;20033;-52
2023/07/20 03:44:26;;;;;;;22.65;10.52;;;17.00;99.90;;;;;;5041777;28;20163;-53
2023/07/20 03:46:52;;;;;;;22.73;10.50;;;17.00;99.90;;;;;;5038188;28;20134;-51
2023/07/20 03:49:18;;;;;;;20.25;10.65;;;17.00;99.90;;;;;;5045279;28;20044;-52
2023/07/20 03:51:43;;;;;;;31.80;11.40;;;16.90;99.90;;;;;;5037695;28;20675;-52
2023/07/20 03:54:09;;;;;;;21.80;11.88;;;16.80;99.90;;;;;;5041795;28;20112;-52
2023/07/20 03:56:35;;;;;;;22.88;11.52;;;16.80;99.90;;;;;;5043997;28;20033;-51
2023/07/20 03:59:01;;;;;;;30.90;13.25;;;17.00;99.90;;;;;;5037162;28;20065;-52
2023/07/20 04:01:27;;;;;;;34.25;13.85;;;17.00;99.90;;;;;;5041722;28;20033;-50
2023/07/20 04:03:52;;;;;;;27.13;13.55;;;16.80;99.90;;;;;;5042466;28;20036;-51
2023/07/20 04:06:18;;;;;;;32.78;14.13;;;16.80;99.90;;;;;;5041410;28;20482;-53
2023/07/20 04:08:47;;;;;;;25.88;13.82;;;16.90;99.90;;;;;;5037408;28;20114;-50
2023/07/20 04:11:12;;;;;;;25.42;14.02;;;16.90;99.90;;;;;;5037449;28;20029;-52
2023/07/20 04:13:38;;;;;;;29.38;14.18;;;16.90;99.90;;;;;;5038700;28;20025;-51
2023/07/20 04:16:04;;;;;;;22.80;13.10;;;16.80;99.90;;;;;;5043687;28;20025;-51
2023/07/20 04:18:30;;;;;;;25.67;14.50;;;16.70;99.90;;;;;;5034505;28;20025;-53
2023/07/20 04:20:56;;;;;;;32.40;15.15;;;17.00;99.90;;;;;;5045440;28;20111;-50
2023/07/20 04:23:21;;;;;;;35.30;16.05;;;17.00;99.90;;;;;;5035676;28;20570;-52
2023/07/20 04:25:47;;;;;;;33.33;15.80;;;17.00;99.90;;;;;;5045011;28;20033;-52
2023/07/20 04:28:12;;;;;;;32.90;15.90;;;17.00;99.90;;;;;;5040169;28;20528;-51
2023/07/20 04:30:40;;;;;;;30.00;16.02;;;17.10;99.90;;;;;;5039641;28;20548;-51
2023/07/20 04:33:06;;;;;;;30.13;16.33;;;17.10;99.90;;;;;;5040097;28;20700;-52
2023/07/20 04:35:52;;;;;;;28.98;15.85;;;17.10;99.90;;;;;;5041044;28;20106;-50
2023/07/20 04:38:18;;;;;;;28.65;17.20;;;17.20;99.90;;;;;;5042442;28;20033;-50
2023/07/20 04:40:45;;;;;;;30.65;16.42;;;17.10;99.90;;;;;;5044776;28;20045;-50
2023/07/20 04:43:11;;;;;;;33.47;17.55;;;17.00;99.90;;;;;;5041313;28;20037;-51
2023/07/20 04:45:37;;;;;;;32.20;17.55;;;17.10;99.90;;;;;;5030907;28;20041;-50
2023/07/20 04:48:03;;;;;;;30.95;17.25;;;17.10;99.90;;;;;;5042365;28;20837;-52
2023/07/20 04:50:28;;;;;;;31.48;17.88;;;17.20;99.90;;;;;;5042480;28;20041;-52
2023/07/20 04:52:54;;;;;;;30.77;17.80;;;17.30;99.90;;;;;;5039778;28;20120;-48
2023/07/20 04:55:20;;;;;;;31.35;18.42;;;17.30;99.90;;;;;;5043186;28;20110;-52
2023/07/20 04:57:45;;;;;;;30.08;18.20;;;17.10;99.90;;;;;;5032646;28;20099;-51
2023/07/20 05:00:13;;;;;;;30.92;19.05;;;17.10;99.90;;;;;;5042209;28;20056;-51
2023/07/20 05:02:38;;;;;;;35.55;18.75;;;17.20;99.90;;;;;;5034754;28;20558;-52
2023/07/20 05:05:07;;;;;;;31.77;19.85;;;17.30;99.90;;;;;;5033844;28;20044;-52
2023/07/20 05:07:33;;;;;;;33.15;18.73;;;17.40;99.90;;;;;;5036901;28;20500;-52
2023/07/20 05:09:59;;;;;;;37.65;19.05;;;17.40;99.90;;;;;;5037092;28;20086;-50
2023/07/20 05:12:24;;;;;;;29.17;18.38;;;17.30;99.90;;;;;;5036307;28;20043;-51
2023/07/20 05:14:50;;;;;;;38.40;19.73;;;17.20;99.90;;;;;;5037252;28;20249;-51
2023/07/20 05:17:15;;;;;;;28.35;18.50;;;17.30;99.90;;;;;;5042627;28;20043;-53
2023/07/20 05:19:41;;;;;;;36.17;19.80;;;17.40;99.90;;;;;;5037754;28;20532;-53
2023/07/20 05:22:07;;;;;;;33.17;18.63;;;17.30;99.90;;;;;;5041360;28;20043;-52
2023/07/20 05:24:32;;;;;;;29.10;18.88;;;17.20;99.90;;;;;;5041249;28;20037;-53
2023/07/20 05:26:58;;;;;;;36.38;19.90;;;17.00;99.90;;;;;;5034962;28;20037;-52
2023/07/20 05:29:25;;;;;;;32.90;19.35;;;17.00;99.90;;;;;;5038201;28;20516;-52
2023/07/20 05:31:51;;;;;;;32.50;19.45;;;16.80;99.90;;;;;;5040569;28;20489;-49
2023/07/20 05:34:16;;;;;;;30.85;20.92;;;16.90;99.90;;;;;;5044128;28;20098;-51
2023/07/20 05:36:42;;;;;;;33.28;20.95;;;17.10;99.90;;;;;;5038653;28;20454;-51
2023/07/20 05:39:07;;;;;;;29.35;18.65;;;17.20;99.90;;;;;;5031921;28;20544;-52
2023/07/20 05:41:33;;;;;;;30.45;19.15;;;17.30;99.90;;;;;;5032802;28;20033;-50
2023/07/20 05:43:58;;;;;;;34.40;19.60;;;17.30;99.90;;;;;;5039028;28;20664;-52
2023/07/20 05:46:24;;;;;;;28.75;16.08;;;17.20;99.90;;;;;;5035173;28;20071;-51
2023/07/20 05:48:50;;;;;;;29.15;17.45;;;17.00;99.90;;;;;;5033604;28;20120;-51
2023/07/20 05:51:15;;;;;;;27.85;17.38;;;17.00;99.90;;;;;;5032534;28;20064;-52
2023/07/20 05:53:41;;;;;;;28.00;16.67;;;17.00;99.90;;;;;;5032881;28;20043;-49
2023/07/20 05:56:10;;;;;;;27.17;15.02;;;17.00;99.90;;;;;;5040537;28;20083;-50
2023/07/20 05:58:36;;;;;;;20.00;13.27;;;16.90;99.90;;;;;;5029069;28;20116;-52
2023/07/20 06:01:06;;;;;;;6.03;5.35;;;17.00;99.90;;;;;;5040304;28;20039;-53
2023/07/20 06:03:33;;;;;;;3.83;3.35;;;17.00;99.90;;;;;;5037337;28;20470;-48
2023/07/20 06:06:02;;;;;;;4.25;3.85;;;17.00;99.90;;;;;;5032280;28;20516;-52
2023/07/20 06:08:28;;;;;;;10.88;7.22;;;17.00;99.90;;;;;;5038143;28;20555;-51
2023/07/20 06:10:54;;;;;;;17.83;10.73;;;17.00;99.90;;;;;;5034083;28;20604;-52
2023/07/20 06:13:20;;;;;;;16.50;10.80;;;17.10;99.90;;;;;;5035209;28;20482;-50
2023/07/20 06:15:47;;;;;;;19.50;11.52;;;17.00;99.90;;;;;;5034218;28;20029;-51
2023/07/20 06:18:13;;;;;;;14.52;10.27;;;17.20;99.90;;;;;;5033589;28;20044;-51
2023/07/20 06:20:38;;;;;;;16.83;9.75;;;17.40;99.90;;;;;;5038185;28;20051;-52
2023/07/20 06:23:04;;;;;;;13.77;9.88;;;17.40;99.90;;;;;;5030459;28;20382;-51
2023/07/20 06:25:30;;;;;;;14.90;9.63;;;17.20;99.90;;;;;;5033514;28;20041;-51
2023/07/20 06:27:56;;;;;;;13.43;8.98;;;16.90;99.90;;;;;;5044001;28;20037;-52
2023/07/20 06:30:22;;;;;;;13.77;8.18;;;17.10;99.90;;;;;;5031529;28;20048;-50
2023/07/20 06:32:48;;;;;;;14.20;8.55;;;17.10;99.90;;;;;;5039810;28;20562;-53
2023/07/20 06:35:14;;;;;;;12.80;8.35;;;17.30;99.90;;;;;;5042535;28;20072;-54
2023/07/20 06:37:40;;;;;;;11.18;7.78;;;17.30;99.90;;;;;;5037892;28;20539;-52
2023/07/20 06:40:08;;;;;;;11.85;7.75;;;17.30;99.90;;;;;;5038914;28;20037;-53
2023/07/20 06:42:34;;;;;;;21.73;13.65;;;17.60;99.90;;;;;;5032742;28;20664;-54
2023/07/20 06:45:00;;;;;;;11.90;7.80;;;17.70;99.90;;;;;;5026300;28;20033;-54
2023/07/20 06:47:26;;;;;;;10.48;6.97;;;18.00;99.90;;;;;;5029924;28;20041;-54
2023/07/20 06:49:52;;;;;;;13.70;7.28;;;18.10;99.90;;;;;;5031516;28;20124;-54
2023/07/20 06:52:18;;;;;;;9.90;6.28;;;17.90;99.90;;;;;;5030428;28;20369;-53
2023/07/20 06:54:43;;;;;;;11.68;6.72;;;18.30;99.90;;;;;;5042929;28;20051;-52
2023/07/20 06:57:09;;;;;;;6.43;3.92;;;18.30;99.90;;;;;;5040650;28;20033;-54
2023/07/20 06:59:35;;;;;;;7.13;4.00;;;18.40;99.90;;;;;;5037353;28;20039;-52
2023/07/20 07:02:00;;;;;;;6.07;3.50;;;18.40;99.90;;;;;;5033402;28;20103;-51
2023/07/20 07:04:27;;;;;;;7.05;4.97;;;18.60;99.90;;;;;;5040283;28;20045;-51
2023/07/20 07:06:52;;;;;;;6.57;4.35;;;18.90;99.90;;;;;;5037034;28;20128;-51
2023/07/20 07:09:18;;;;;;;6.78;5.40;;;18.80;99.90;;;;;;5043190;28;20120;-53
2023/07/20 07:11:44;;;;;;;9.20;5.45;;;18.70;99.90;;;;;;5037399;28;20120;-53
2023/07/20 07:14:12;;;;;;;8.95;5.28;;;19.00;99.90;;;;;;5039055;28;20048;-57
2023/07/20 07:16:38;;;;;;;8.10;4.45;;;19.00;99.90;;;;;;5037000;28;20037;-53
2023/07/20 07:19:05;;;;;;;5.38;3.70;;;18.70;99.90;;;;;;5035665;28;20064;-51
2023/07/20 07:21:31;;;;;;;4.68;2.92;;;18.30;99.90;;;;;;5036198;28;20033;-52
2023/07/20 07:23:57;;;;;;;5.72;3.15;;;18.10;99.90;;;;;;5042476;28;20033;-53
2023/07/20 07:26:24;;;;;;;7.15;2.90;;;18.40;99.90;;;;;;5037744;28;20049;-55
2023/07/20 07:28:49;;;;;;;4.32;2.70;;;18.80;99.90;;;;;;5044869;28;20029;-52
2023/07/20 07:31:15;;;;;;;5.82;2.25;;;18.90;99.90;;;;;;5044672;28;20056;-51
2023/07/20 07:33:41;;;;;;;5.15;3.40;;;19.30;99.90;;;;;;5035921;28;20423;-51
2023/07/20 07:36:06;;;;;;;5.25;3.00;;;19.20;99.90;;;;;;5040795;28;20429;-54
2023/07/20 07:38:32;;;;;;;7.95;3.75;;;19.30;99.90;;;;;;5035028;28;20429;-57
2023/07/20 07:40:58;;;;;;;9.55;4.05;;;19.20;99.90;;;;;;5029955;28;20064;-54
2023/07/20 07:43:24;;;;;;;4.63;2.50;;;19.10;99.90;;;;;;5032952;28;20125;-53
2023/07/20 07:45:50;;;;;;;3.78;2.70;;;19.00;99.90;;;;;;5040881;28;20179;-52
2023/07/20 07:48:15;;;;;;;4.70;2.28;;;18.80;99.90;;;;;;5042420;28;20344;-52
2023/07/20 07:50:41;;;;;;;3.83;2.03;;;18.80;99.90;;;;;;5037979;28;20038;-53
2023/07/20 07:53:10;;;;;;;4.50;1.90;;;18.80;99.90;;;;;;5042314;28;20489;-60
2023/07/20 07:55:36;;;;;;;2.78;1.60;;;18.80;99.90;;;;;;5043840;28;20067;-53
2023/07/20 07:58:01;;;;;;;2.92;1.70;;;19.20;99.90;;;;;;5041451;28;20037;-51
2023/07/20 08:00:27;;;;;;;2.33;1.50;;;19.40;99.90;;;;;;5038968;28;20207;-53
2023/07/20 08:02:53;;;;;;;2.20;1.20;;;19.10;99.90;;;;;;5035047;28;20033;-53
2023/07/20 08:05:18;;;;;;;2.50;1.23;;;19.30;99.90;;;;;;5039265;28;20097;-51
2023/07/20 08:07:45;;;;;;;2.83;1.60;;;19.40;99.90;;;;;;5040338;28;20041;-54
2023/07/20 08:10:11;;;;;;;1.98;1.38;;;18.80;99.90;;;;;;5040649;28;20025;-52
2023/07/20 08:12:36;;;;;;;5.75;1.48;;;18.60;99.90;;;;;;5041489;28;20072;-52
2023/07/20 08:15:02;;;;;;;2.67;1.20;;;18.80;99.90;;;;;;5031387;28;20040;-52
2023/07/20 08:17:28;;;;;;;2.85;1.10;;;19.20;99.90;;;;;;5036823;28;20396;-49
2023/07/20 08:19:53;;;;;;;2.88;1.10;;;19.30;99.90;;;;;;5033442;28;20037;-48
2023/07/20 08:22:19;;;;;;;3.85;1.35;;;19.50;99.90;;;;;;5038136;28;20033;-49
2023/07/20 08:24:45;;;;;;;2.38;1.60;;;19.40;99.90;;;;;;5025501;28;20037;-51
2023/07/20 08:27:11;;;;;;;2.30;1.73;;;19.00;99.90;;;;;;5039829;28;20033;-52
2023/07/20 08:29:37;;;;;;;3.92;1.50;;;18.60;99.90;;;;;;5038796;28;20041;-51
2023/07/20 08:32:04;;;;;;;3.47;1.52;;;18.60;99.90;;;;;;5037715;28;20642;-55
2023/07/20 08:34:30;;;;;;;2.72;1.80;;;18.80;99.90;;;;;;5044664;28;20036;-52
2023/07/20 08:36:56;;;;;;;2.95;1.60;;;19.10;99.90;;;;;;5041446;28;20397;-51
2023/07/20 08:39:22;;;;;;;5.55;2.05;;;19.20;99.90;;;;;;5041086;28;20043;-59
2023/07/20 08:41:48;;;;;;;2.88;1.50;;;19.40;99.90;;;;;;5041086;28;20420;-52
2023/07/20 08:44:15;;;;;;;3.85;1.60;;;19.60;99.90;;;;;;5038131;28;20029;-51
2023/07/20 08:46:42;;;;;;;2.38;1.50;;;19.80;99.90;;;;;;5040150;28;20033;-56
2023/07/20 08:49:08;;;;;;;4.15;1.58;;;20.00;99.90;;;;;;5040530;28;20388;-61
2023/07/20 08:51:35;;;;;;;5.93;2.00;;;19.90;99.90;;;;;;5033944;28;20128;-54
2023/07/20 08:54:03;;;;;;;2.03;1.50;;;19.80;99.90;;;;;;5038126;28;20370;-52
2023/07/20 08:56:30;;;;;;;1.30;1.10;;;19.80;99.90;;;;;;5033731;28;20029;-51
2023/07/20 08:58:57;;;;;;;2.35;1.40;;;19.90;99.90;;;;;;5042272;28;20025;-50
2023/07/20 09:01:23;;;;;;;3.38;1.55;;;20.10;99.90;;;;;;5033631;28;20038;-53
2023/07/20 09:03:49;;;;;;;2.65;1.50;;;20.10;99.90;;;;;;5040335;28;20068;-48
2023/07/20 09:06:15;;;;;;;2.78;1.33;;;20.00;99.90;;;;;;5035620;28;20037;-55
2023/07/20 09:08:42;;;;;;;0.95;0.60;;;19.80;99.90;;;;;;5038253;28;20052;-51
2023/07/20 09:11:15;;;;;;;0.63;0.63;;;20.00;99.90;;;;;;5035160;28;20115;-52
2023/07/20 09:13:41;;;;;;;;;;;20.00;99.90;;;;;;5037087;28;20124;-54
2023/07/20 09:16:06;;;;;;;3.17;1.40;;;20.30;99.90;;;;;;5036484;28;20023;-52
2023/07/20 09:18:34;;;;;;;0.00;0.00;;;20.10;99.90;;;;;;5032189;28;20100;-56
2023/07/20 09:21:06;;;;;;;0.45;0.30;;;20.40;99.90;;;;;;5040725;28;20472;-51
2023/07/20 09:23:36;;;;;;;0.43;0.32;;;20.40;99.90;;;;;;5037728;28;20029;-54
2023/07/20 09:26:12;;;;;;;1.33;0.73;;;20.50;99.90;;;;;;5027621;28;20041;-49
2023/07/20 09:28:52;;;;;;;2.67;1.10;;;20.80;99.90;;;;;;5034190;28;21118;-50
2023/07/20 09:31:19;;;;;;;3.13;0.80;;;20.50;99.90;;;;;;5034052;28;20037;-53
2023/07/20 09:33:49;;;;;;;3.72;1.20;;;20.20;99.90;;;;;;5038981;28;20025;-50
2023/07/20 09:36:15;;;;;;;2.10;1.10;;;20.00;99.90;;;;;;5033312;28;20515;-51
2023/07/20 09:38:43;;;;;;;4.57;1.30;;;19.80;99.90;;;;;;5040898;28;20029;-53
2023/07/20 09:41:15;;;;;;;4.07;2.05;;;20.10;99.90;;;;;;5031110;28;20103;-53
2023/07/20 09:43:42;;;;;;;1.88;1.52;;;20.40;99.90;;;;;;5052191;28;20033;-52
2023/07/20 09:46:07;;;;;;;3.17;1.30;;;20.80;99.90;;;;;;5032563;28;20116;-51
2023/07/20 09:48:33;;;;;;;3.47;1.17;;;20.90;99.90;;;;;;5034068;28;20112;-50
2023/07/20 09:50:59;;;;;;;3.13;1.17;;;21.10;99.90;;;;;;5038681;28;20543;-51
2023/07/20 09:53:26;;;;;;;2.20;1.10;;;20.60;99.90;;;;;;5038017;28;20033;-52
2023/07/20 09:55:53;;;;;;;2.97;1.23;;;20.40;99.90;;;;;;5028522;28;20044;-49
2023/07/20 09:58:19;;;;;;;1.85;1.00;;;20.40;99.90;;;;;;5039097;28;20497;-49
2023/07/20 10:00:50;;;;;;;5.50;1.48;;;20.60;99.90;;;;;;5039206;28;20655;-52
2023/07/20 10:03:19;;;;;;;2.35;1.35;;;21.10;99.90;;;;;;5034958;28;20485;-53
2023/07/20 10:05:54;;;;;;;1.38;0.90;;;21.00;99.90;;;;;;5035759;28;20120;-53
2023/07/20 10:08:23;;;;;;;2.65;0.90;;;21.00;99.90;;;;;;5027521;28;20036;-56
2023/07/20 10:10:49;;;;;;;4.90;1.50;;;21.00;99.90;;;;;;5029300;28;20567;-59
2023/07/20 10:13:21;;;;;;;2.85;1.15;;;21.30;99.90;;;;;;5037395;28;20684;-51
2023/07/20 10:15:58;;;;;;;2.72;1.20;;;21.20;99.90;;;;;;5037897;28;20510;-52
2023/07/20 10:18:54;;;;;;;1.70;1.00;;;21.40;99.90;;;;;;5036732;28;20513;-51
2023/07/20 10:21:22;;;;;;;2.05;1.17;;;21.30;99.90;;;;;;5033208;28;20049;-50
2023/07/20 10:23:49;;;;;;;1.73;1.10;;;21.20;99.90;;;;;;5040944;28;20033;-50
2023/07/20 10:26:15;;;;;;;3.05;1.30;;;21.00;99.90;;;;;;5041687;28;20045;-50
2023/07/20 10:28:41;;;;;;;2.35;1.30;;;20.80;99.90;;;;;;5037283;28;20411;-53
2023/07/20 10:31:12;;;;;;;3.70;1.10;;;20.70;99.90;;;;;;5040900;28;20531;-53
2023/07/20 10:33:38;;;;;;;3.22;1.20;;;21.20;99.90;;;;;;5036991;28;20570;-51
2023/07/20 10:36:05;;;;;;;3.90;1.10;;;21.50;99.90;;;;;;5036988;28;20041;-50
2023/07/20 10:38:52;;;;;;;2.58;1.10;;;21.50;99.90;;;;;;5031792;28;20526;-51
2023/07/20 10:41:20;;;;;;;2.92;1.40;;;21.90;99.90;;;;;;5031594;28;20056;-52
2023/07/20 10:43:47;;;;;;;2.70;1.20;;;22.10;99.90;;;;;;5032764;28;20030;-51
2023/07/20 10:46:12;;;;;;;1.48;1.00;;;22.10;99.90;;;;;;5038251;28;20505;-55
2023/07/20 10:49:02;;;;;;;1.65;0.80;;;22.30;99.90;;;;;;5041279;28;20037;-51
2023/07/20 10:51:28;;;;;;;1.80;1.00;;;22.20;99.90;;;;;;5031689;28;20048;-51
2023/07/20 10:53:58;;;;;;;1.35;0.82;;;22.40;99.90;;;;;;5042830;28;20055;-53
2023/07/20 10:56:30;;;;;;;1.65;0.90;;;22.50;99.90;;;;;;5041577;28;20045;-51
2023/07/20 10:58:59;;;;;;;1.77;0.90;;;22.70;99.90;;;;;;5040993;28;20541;-51
2023/07/20 11:01:32;;;;;;;1.85;1.02;;;22.10;99.90;;;;;;5033448;28;20033;-50
2023/07/20 11:04:00;;;;;;;2.15;1.20;;;22.10;99.90;;;;;;5047370;28;20484;-49
2023/07/20 11:06:25;;;;;;;1.23;0.88;;;22.00;99.90;;;;;;5044576;28;20091;-52
2023/07/20 11:09:06;;;;;;;2.90;1.30;;;22.10;99.90;;;;;;5043502;28;20041;-54
2023/07/20 11:11:35;;;;;;;2.22;1.20;;;22.20;99.90;;;;;;5031708;28;20456;-53
2023/07/20 11:14:03;;;;;;;1.83;0.60;;;22.40;99.90;;;;;;5039586;28;20441;-48
2023/07/20 11:16:40;;;;;;;1.73;1.63;;;22.50;99.90;;;;;;5041666;28;20095;-52
2023/07/20 11:19:15;;;;;;;2.65;0.98;;;22.60;99.90;;;;;;5039709;28;20041;-50
2023/07/20 11:21:42;;;;;;;7.32;1.90;;;22.60;99.90;;;;;;5032678;28;20037;-52
2023/07/20 11:24:10;;;;;;;3.13;1.00;;;22.50;99.90;;;;;;5035560;28;20065;-48
2023/07/20 11:26:54;;;;;;;4.28;1.20;;;22.00;99.90;;;;;;5034519;28;20032;-52
2023/07/20 11:29:22;;;;;;;3.17;1.02;;;21.80;99.90;;;;;;5042504;28;20099;-53
2023/07/20 11:31:49;;;;;;;2.50;1.10;;;21.60;99.90;;;;;;5043471;28;20029;-51
2023/07/20 11:34:20;;;;;;;4.50;1.25;;;21.70;99.90;;;;;;5039897;28;20064;-51
2023/07/20 11:36:50;;;;;;;1.02;0.65;;;21.60;99.90;;;;;;5037635;28;20026;-50
2023/07/20 11:39:21;;;;;;;1.08;0.50;;;21.40;99.90;;;;;;5042576;28;20602;-51
2023/07/20 11:41:48;;;;;;;0.85;0.70;;;21.70;99.90;;;;;;5036895;28;20037;-51
2023/07/20 11:44:14;;;;;;;0.63;0.60;;;21.60;99.90;;;;;;5041607;28;20484;-57
2023/07/20 11:46:42;;;;;;;1.23;0.63;;;21.80;99.90;;;;;;5036943;28;20123;-53
2023/07/20 11:49:08;;;;;;;0.80;0.52;;;22.20;99.90;;;;;;5036461;28;20025;-53
2023/07/20 11:51:35;;;;;;;2.38;1.08;;;22.40;99.90;;;;;;5042988;28;20115;-52
2023/07/20 11:54:02;;;;;;;6.68;1.23;;;22.30;99.90;;;;;;5046946;28;20777;-51
2023/07/20 11:56:28;;;;;;;1.55;0.80;;;22.40;99.90;;;;;;5039006;28;20048;-52
2023/07/20 11:59:01;;;;;;;1.17;0.60;;;22.30;99.90;;;;;;5037742;28;20036;-50
2023/07/20 12:01:35;;;;;;;;;;;22.30;99.90;;;;;;5032356;28;20681;-51
2023/07/20 12:04:02;;;;;;;1.25;0.80;;;22.20;99.90;;;;;;5036619;28;19955;-52
2023/07/20 12:06:28;;;;;;;1.85;0.73;;;22.10;99.90;;;;;;5043716;28;20045;-53
2023/07/20 12:08:58;;;;;;;2.00;0.93;;;22.10;99.90;;;;;;5036468;28;20152;-51
2023/07/20 12:11:54;;;;;;;1.08;0.60;;;22.30;99.90;;;;;;5042036;28;20067;-53
2023/07/20 12:14:19;;;;;;;1.65;0.90;;;22.30;99.90;;;;;;5040389;28;20116;-52
2023/07/20 12:16:52;;;;;;;2.08;0.80;;;22.30;99.90;;;;;;5044761;28;20133;-52
2023/07/20 12:19:18;;;;;;;;;;;22.50;99.90;;;;;;5044556;28;20110;-52
2023/07/20 12:21:43;;;;;;;1.92;0.90;;;22.40;99.90;;;;;;5043546;28;19972;-52
2023/07/20 12:24:11;;;;;;;3.72;1.00;;;22.50;99.90;;;;;;5041479;28;20032;-51
2023/07/20 12:26:36;;;;;;;2.80;1.00;;;22.20;99.90;;;;;;5035985;28;20052;-51
2023/07/20 12:29:03;;;;;;;1.85;0.95;;;22.60;99.90;;;;;;5042415;28;20600;-49
2023/07/20 12:31:29;;;;;;;1.77;1.00;;;22.20;99.90;;;;;;5040022;28;20025;-53
2023/07/20 12:33:57;;;;;;;3.88;0.95;;;22.00;99.90;;;;;;5042990;28;20659;-50
2023/07/20 12:36:23;;;;;;;1.33;0.80;;;21.80;99.90;;;;;;5044052;28;20876;-50
2023/07/20 12:38:48;;;;;;;2.17;1.10;;;21.70;99.90;;;;;;5042829;28;20041;-53
2023/07/20 12:41:14;;;;;;;2.38;0.73;;;21.50;99.90;;;;;;5043783;28;20424;-52